createdAt,value
2018-09-19T08:39:10.612Z,3.90
2018-09-19T08:44:29.166Z,4.60
2018-09-19T08:49:48.571Z,3.73
2018-09-19T08:55:07.845Z,4.65
2018-09-19T09:00:26.672Z,4.77
2018-09-19T09:05:45.211Z,4.20
2018-09-19T09:11:03.828Z,4.30
2018-09-19T09:16:22.403Z,4.10
2018-09-19T09:21:41.141Z,4.40
2018-09-19T09:26:59.819Z,3.80
2018-09-19T09:37:36.710Z,3.67
2018-09-19T09:42:55.809Z,4.53
2018-09-19T09:48:14.386Z,4.10
2018-09-19T09:58:52.226Z,4.20
2018-09-19T10:04:11.222Z,4.37
2018-09-19T10:09:29.813Z,3.67
2018-09-19T10:14:48.779Z,3.87
2018-09-19T10:20:09.122Z,3.77
2018-09-19T10:25:27.818Z,4.13
2018-09-19T10:30:46.413Z,3.23
2018-09-19T10:36:08.477Z,3.87
2018-09-19T10:41:27.654Z,4.07
2018-09-19T10:46:47.583Z,4.10
2018-09-19T10:52:06.150Z,4.03
2018-09-19T10:57:24.763Z,4.05
2018-09-19T11:02:44.012Z,3.58
2018-09-19T11:08:02.625Z,3.50
2018-09-19T11:13:22.135Z,3.83
2018-09-19T11:18:40.654Z,3.45
2018-09-19T11:23:59.152Z,3.33
2018-09-19T11:29:17.695Z,3.12
2018-09-19T11:34:36.864Z,2.90
2018-09-19T11:39:55.699Z,3.00
2018-09-19T11:45:14.295Z,2.80
2018-09-19T11:50:33.406Z,2.98
2018-09-19T11:55:52.036Z,3.00
2018-09-19T12:01:11.332Z,2.85
2018-09-19T12:06:29.835Z,3.17
2018-09-19T12:11:48.585Z,2.60
2018-09-19T12:17:07.751Z,2.50
2018-09-19T12:22:26.360Z,2.80
2018-09-19T12:27:45.055Z,3.62
2018-09-19T12:33:03.850Z,3.02
2018-09-19T12:38:22.388Z,2.95
2018-09-19T12:43:40.970Z,3.25
2018-09-19T12:48:59.605Z,3.05
2018-09-19T12:54:18.082Z,2.75
2018-09-19T12:59:36.632Z,2.90
2018-09-19T13:04:56.518Z,3.10
2018-09-19T13:10:15.014Z,3.35
2018-09-19T13:15:33.631Z,3.22
2018-09-19T13:20:52.136Z,3.50
2018-09-19T13:26:10.703Z,3.25
2018-09-19T13:31:29.207Z,2.92
2018-09-19T13:36:47.840Z,3.12
2018-09-19T13:42:06.682Z,3.10
2018-09-19T13:47:25.236Z,3.30
2018-09-19T13:52:43.919Z,2.90
2018-09-19T13:58:02.594Z,3.45
2018-09-19T14:03:21.109Z,3.15
2018-09-19T14:08:40.390Z,3.65
2018-09-19T14:13:58.946Z,2.83
2018-09-19T14:19:17.837Z,3.52
2018-09-19T14:24:36.960Z,3.65
2018-09-19T14:29:55.543Z,3.45
2018-09-19T14:35:14.087Z,3.77
2018-09-19T14:40:32.587Z,3.37
2018-09-19T14:45:51.134Z,3.58
2018-09-19T14:51:09.645Z,3.83
2018-09-19T14:56:28.159Z,3.25
2018-09-19T15:01:46.802Z,3.80
2018-09-19T15:07:05.424Z,3.63
2018-09-19T15:12:24.066Z,3.60
2018-09-19T15:17:42.621Z,3.47
2018-09-19T15:23:01.221Z,3.60
2018-09-19T15:28:20.021Z,3.90
2018-09-19T15:33:38.558Z,3.58
2018-09-19T15:38:57.118Z,3.53
2018-09-19T15:44:15.701Z,3.90
2018-09-19T15:49:34.222Z,3.70
2018-09-19T15:54:52.959Z,3.57
2018-09-19T16:00:11.738Z,3.85
2018-09-19T16:05:30.291Z,3.83
2018-09-19T16:10:48.886Z,3.57
2018-09-19T16:16:08.100Z,3.47
2018-09-19T16:21:26.645Z,3.63
2018-09-19T16:26:45.181Z,3.53
2018-09-19T16:32:03.779Z,3.70
2018-09-19T16:37:22.470Z,3.40
2018-09-19T16:42:41.041Z,3.70
2018-09-19T16:47:59.555Z,3.23
2018-09-19T16:53:18.504Z,4.30
2018-09-19T16:58:37.112Z,3.37
2018-09-19T17:03:55.623Z,3.30
2018-09-19T17:09:14.180Z,3.60
2018-09-19T17:14:33.364Z,3.60
2018-09-19T17:19:52.619Z,3.43
2018-09-19T17:25:12.476Z,3.50
2018-09-19T17:30:31.156Z,3.73
2018-09-19T17:35:49.829Z,3.87
2018-09-19T17:41:08.432Z,3.60
2018-09-19T17:46:27.139Z,3.10
2018-09-19T17:51:47.092Z,3.43
2018-09-19T17:57:05.689Z,3.30
2018-09-19T18:02:24.268Z,3.50
2018-09-19T18:07:43.021Z,3.40
2018-09-19T18:13:02.387Z,3.60
2018-09-19T18:18:21.439Z,4.50
2018-09-19T18:23:40.662Z,3.73
2018-09-19T18:28:59.331Z,3.43
2018-09-19T18:34:17.863Z,3.53
2018-09-19T18:39:36.360Z,3.70
2018-09-19T18:44:54.988Z,3.80
2018-09-19T18:50:13.559Z,4.15
2018-09-19T18:55:32.506Z,3.90
2018-09-19T19:00:52.031Z,3.90
2018-09-19T19:06:11.214Z,3.93
2018-09-19T19:11:29.739Z,4.70
2018-09-19T19:16:48.280Z,4.10
2018-09-19T19:22:07.557Z,4.10
2018-09-19T19:27:26.180Z,3.87
2018-09-19T19:32:44.739Z,4.90
2018-09-19T19:38:03.377Z,5.37
2018-09-19T19:43:21.991Z,5.70
2018-09-19T19:48:40.826Z,4.70
2018-09-19T19:53:59.998Z,4.87
2018-09-19T19:59:19.586Z,4.90
2018-09-19T20:04:38.059Z,4.73
2018-09-19T20:09:56.638Z,4.97
2018-09-19T20:15:15.145Z,4.62
2018-09-19T20:20:33.743Z,4.47
2018-09-19T20:25:52.229Z,4.20
2018-09-19T20:31:11.953Z,4.45
2018-09-19T20:36:31.460Z,4.00
2018-09-19T20:41:50.127Z,4.47
2018-09-19T20:47:08.895Z,4.33
2018-09-19T20:52:27.613Z,4.07
2018-09-19T20:57:46.218Z,4.63
2018-09-19T21:03:04.710Z,4.15
2018-09-19T21:08:23.347Z,4.10
2018-09-19T21:13:41.928Z,5.00
2018-09-19T21:19:00.535Z,5.40
2018-09-19T21:24:20.037Z,4.70
2018-09-19T21:29:38.687Z,4.30
2018-09-19T21:34:57.308Z,4.70
2018-09-19T21:40:15.976Z,5.20
2018-09-19T21:45:34.984Z,4.70
2018-09-19T21:50:54.251Z,5.43
2018-09-19T21:56:12.767Z,5.37
2018-09-19T22:01:36.543Z,4.83
2018-09-19T22:06:55.162Z,4.63
2018-09-19T22:12:13.741Z,4.87
2018-09-19T22:17:32.320Z,5.17
2018-09-19T22:22:51.077Z,4.80
2018-09-19T22:28:09.608Z,4.30
2018-09-19T22:33:28.320Z,4.50
2018-09-19T22:38:47.103Z,4.17
2018-09-19T22:44:05.996Z,4.10
2018-09-19T22:49:25.199Z,4.90
2018-09-19T22:54:43.779Z,4.20
2018-09-19T23:00:03.090Z,4.50
2018-09-19T23:05:21.607Z,4.77
2018-09-19T23:10:40.755Z,4.07
2018-09-19T23:16:00.194Z,4.10
2018-09-19T23:21:19.547Z,4.40
2018-09-19T23:26:38.132Z,4.10
2018-09-19T23:31:56.699Z,4.50
2018-09-19T23:37:15.387Z,4.23
2018-09-19T23:42:34.008Z,5.17
2018-09-19T23:47:53.215Z,4.70
2018-09-19T23:53:11.800Z,4.07
2018-09-19T23:58:30.352Z,4.90
